KBKW/BKW METAR and TAF weather

Enter ICAO airport designator
Station Type Date Time Source
KBKW METAR 2020/01/20 15:58 UTC NOAA

KBKW 201558Z AUTO 34008KT 1 1/2SM -SN OVC016 M10/M13 A3036 RMK AO2 P0000 T11001133


Station Type Date Time Source
KBKW Decoded METAR 2020/01/20 15:58 UTC NOAA

RALEIGH COUNTY MEM AIRPORT , WV, United States (KBKW) 37-48N 081-07W 764M
Jan 20, 2020 - 10:58 AM EST / 2020.01.20 1558 UTC
Wind: from the NNW (340 degrees) at 9 MPH (8 KT):0
Visibility: 1 1/2 mile(s):0
Sky conditions: overcast
Weather: light snow
Precipitation last hour: A trace
Temperature: 14.0 F (-10.0 C)
Windchill: 1 F (-17 C):1
Dew Point: 8.1 F (-13.3 C)
Relative Humidity: 76%
Pressure (altimeter): 30.36 in. Hg (1028 hPa)
ob: KBKW 201558Z AUTO 34008KT 1 1/2SM -SN OVC016 M10/M13 A3036 RMK AO2 P0000 T11001133
cycle: 16

Station Type Date Time Source
KBKW TAF 2020/01/20 15:58 UTC NOAA

TAF
AMD KBKW 201456Z 2015/2112 33004KT 5SM -SHSN BKN015
TEMPO 2015/2017 1SM -SHSN OVC010
FM202000 35005KT P6SM BKN025
FM210300 00000KT P6SM BKN050
FM210700 00000KT P6SM SCT022
FM210900 00000KT P6SM BKN015

Example: see airport list